sensor_id;sensor_type;location;lat;lon;timestamp;P1;durP1;ratioP1;P2;durP2;ratioP2
1136;SDS011;557;48.466;7.950;2022-09-02T00:00:16;8.77;;;8.17;;
1136;SDS011;557;48.466;7.950;2022-09-02T00:03:03;7.90;;;7.33;;
1136;SDS011;557;48.466;7.950;2022-09-02T00:05:48;7.87;;;7.37;;
1136;SDS011;557;48.466;7.950;2022-09-02T00:08:34;7.63;;;7.13;;
1136;SDS011;557;48.466;7.950;2022-09-02T00:11:21;8.53;;;7.83;;
1136;SDS011;557;48.466;7.950;2022-09-02T00:14:10;8.90;;;8.20;;
1136;SDS011;557;48.466;7.950;2022-09-02T00:16:59;8.43;;;7.83;;
1136;SDS011;557;48.466;7.950;2022-09-02T00:19:44;8.40;;;7.50;;
1136;SDS011;557;48.466;7.950;2022-09-02T00:22:30;7.43;;;6.83;;
1136;SDS011;557;48.466;7.950;2022-09-02T00:25:15;8.57;;;7.80;;
1136;SDS011;557;48.466;7.950;2022-09-02T00:28:01;7.80;;;7.10;;
1136;SDS011;557;48.466;7.950;2022-09-02T00:30:49;6.83;;;6.33;;
1136;SDS011;557;48.466;7.950;2022-09-02T00:33:34;7.20;;;6.60;;
1136;SDS011;557;48.466;7.950;2022-09-02T00:36:20;7.60;;;6.90;;
1136;SDS011;557;48.466;7.950;2022-09-02T00:39:06;8.40;;;7.60;;
1136;SDS011;557;48.466;7.950;2022-09-02T00:41:52;7.10;;;6.60;;
1136;SDS011;557;48.466;7.950;2022-09-02T00:44:38;7.87;;;7.27;;
1136;SDS011;557;48.466;7.950;2022-09-02T00:47:26;7.17;;;6.47;;
1136;SDS011;557;48.466;7.950;2022-09-02T00:50:14;7.13;;;6.53;;
1136;SDS011;557;48.466;7.950;2022-09-02T00:53:03;7.30;;;6.70;;
1136;SDS011;557;48.466;7.950;2022-09-02T00:55:52;7.93;;;7.23;;
1136;SDS011;557;48.466;7.950;2022-09-02T00:58:37;7.67;;;6.97;;
1136;SDS011;557;48.466;7.950;2022-09-02T01:01:23;8.20;;;7.50;;
1136;SDS011;557;48.466;7.950;2022-09-02T01:04:11;7.03;;;6.43;;
1136;SDS011;557;48.466;7.950;2022-09-02T01:06:57;7.97;;;7.30;;
1136;SDS011;557;48.466;7.950;2022-09-02T01:09:42;7.00;;;6.40;;
1136;SDS011;557;48.466;7.950;2022-09-02T01:12:28;7.30;;;6.70;;
1136;SDS011;557;48.466;7.950;2022-09-02T01:15:15;7.90;;;7.40;;
1136;SDS011;557;48.466;7.950;2022-09-02T01:18:00;6.87;;;6.27;;
1136;SDS011;557;48.466;7.950;2022-09-02T01:20:49;7.40;;;6.70;;
1136;SDS011;557;48.466;7.950;2022-09-02T01:23:36;7.43;;;6.83;;
1136;SDS011;557;48.466;7.950;2022-09-02T01:26:21;7.47;;;6.87;;
1136;SDS011;557;48.466;7.950;2022-09-02T01:29:07;7.53;;;6.80;;
1136;SDS011;557;48.466;7.950;2022-09-02T01:31:53;7.57;;;6.83;;
1136;SDS011;557;48.466;7.950;2022-09-02T01:34:39;7.10;;;6.53;;
1136;SDS011;557;48.466;7.950;2022-09-02T01:37:24;7.63;;;6.93;;
1136;SDS011;557;48.466;7.950;2022-09-02T01:40:12;7.33;;;6.63;;
1136;SDS011;557;48.466;7.950;2022-09-02T01:43:01;7.97;;;7.27;;
1136;SDS011;557;48.466;7.950;2022-09-02T01:45:51;7.67;;;7.07;;
1136;SDS011;557;48.466;7.950;2022-09-02T01:48:39;7.90;;;7.20;;
1136;SDS011;557;48.466;7.950;2022-09-02T01:51:24;6.03;;;5.53;;
1136;SDS011;557;48.466;7.950;2022-09-02T01:54:10;7.00;;;6.50;;
1136;SDS011;557;48.466;7.950;2022-09-02T01:56:57;13.00;;;7.23;;
1136;SDS011;557;48.466;7.950;2022-09-02T01:59:42;6.60;;;6.10;;
1136;SDS011;557;48.466;7.950;2022-09-02T02:02:29;8.13;;;7.00;;
1136;SDS011;557;48.466;7.950;2022-09-02T02:05:14;7.60;;;7.00;;
1136;SDS011;557;48.466;7.950;2022-09-02T02:08:00;6.87;;;6.37;;
1136;SDS011;557;48.466;7.950;2022-09-02T02:10:46;8.20;;;7.50;;
1136;SDS011;557;48.466;7.950;2022-09-02T02:13:34;6.93;;;6.40;;
1136;SDS011;557;48.466;7.950;2022-09-02T02:16:20;6.33;;;5.83;;
1136;SDS011;557;48.466;7.950;2022-09-02T02:19:06;6.57;;;5.97;;
1136;SDS011;557;48.466;7.950;2022-09-02T02:21:51;5.97;;;5.53;;
1136;SDS011;557;48.466;7.950;2022-09-02T02:24:37;6.67;;;6.07;;
1136;SDS011;557;48.466;7.950;2022-09-02T02:27:22;6.53;;;5.93;;
1136;SDS011;557;48.466;7.950;2022-09-02T02:30:11;6.30;;;5.80;;
1136;SDS011;557;48.466;7.950;2022-09-02T02:32:58;6.33;;;5.83;;
1136;SDS011;557;48.466;7.950;2022-09-02T02:35:44;6.50;;;5.90;;
1136;SDS011;557;48.466;7.950;2022-09-02T02:38:30;6.47;;;5.97;;
1136;SDS011;557;48.466;7.950;2022-09-02T02:41:16;7.20;;;6.60;;
1136;SDS011;557;48.466;7.950;2022-09-02T02:44:03;7.07;;;6.47;;
1136;SDS011;557;48.466;7.950;2022-09-02T02:46:50;6.93;;;6.23;;
1136;SDS011;557;48.466;7.950;2022-09-02T02:49:37;7.10;;;6.40;;
1136;SDS011;557;48.466;7.950;2022-09-02T02:52:23;8.10;;;6.20;;
1136;SDS011;557;48.466;7.950;2022-09-02T02:55:10;6.63;;;5.80;;
1136;SDS011;557;48.466;7.950;2022-09-02T02:57:57;8.67;;;7.87;;
1136;SDS011;557;48.466;7.950;2022-09-02T03:00:42;6.87;;;6.27;;
1136;SDS011;557;48.466;7.950;2022-09-02T03:03:30;6.80;;;6.20;;
1136;SDS011;557;48.466;7.950;2022-09-02T03:06:15;6.27;;;5.67;;
1136;SDS011;557;48.466;7.950;2022-09-02T03:09:01;6.20;;;5.60;;
1136;SDS011;557;48.466;7.950;2022-09-02T03:11:47;7.47;;;6.57;;
1136;SDS011;557;48.466;7.950;2022-09-02T03:14:33;6.57;;;6.00;;
1136;SDS011;557;48.466;7.950;2022-09-02T03:17:19;7.37;;;6.70;;
1136;SDS011;557;48.466;7.950;2022-09-02T03:20:07;7.20;;;5.80;;
1136;SDS011;557;48.466;7.950;2022-09-02T03:22:53;6.30;;;5.70;;
1136;SDS011;557;48.466;7.950;2022-09-02T03:25:41;6.60;;;6.00;;
1136;SDS011;557;48.466;7.950;2022-09-02T03:28:28;6.10;;;5.50;;
1136;SDS011;557;48.466;7.950;2022-09-02T03:31:16;6.17;;;5.60;;
1136;SDS011;557;48.466;7.950;2022-09-02T03:34:03;6.80;;;5.60;;
1136;SDS011;557;48.466;7.950;2022-09-02T03:36:52;6.60;;;6.00;;
1136;SDS011;557;48.466;7.950;2022-09-02T03:39:38;6.03;;;5.47;;
1136;SDS011;557;48.466;7.950;2022-09-02T03:42:23;7.00;;;5.97;;
1136;SDS011;557;48.466;7.950;2022-09-02T03:45:09;5.60;;;5.10;;
1136;SDS011;557;48.466;7.950;2022-09-02T03:47:57;6.17;;;5.60;;
1136;SDS011;557;48.466;7.950;2022-09-02T03:50:43;6.60;;;6.00;;
1136;SDS011;557;48.466;7.950;2022-09-02T03:53:32;6.67;;;6.07;;
1136;SDS011;557;48.466;7.950;2022-09-02T03:56:18;6.70;;;6.00;;
1136;SDS011;557;48.466;7.950;2022-09-02T03:59:03;7.50;;;5.53;;
1136;SDS011;557;48.466;7.950;2022-09-02T04:01:49;8.00;;;7.13;;
1136;SDS011;557;48.466;7.950;2022-09-02T04:04:35;7.10;;;6.50;;
1136;SDS011;557;48.466;7.950;2022-09-02T04:07:21;7.37;;;6.67;;
1136;SDS011;557;48.466;7.950;2022-09-02T04:10:08;7.50;;;6.77;;
1136;SDS011;557;48.466;7.950;2022-09-02T04:12:54;7.47;;;6.77;;
1136;SDS011;557;48.466;7.950;2022-09-02T04:15:39;8.67;;;7.80;;
1136;SDS011;557;48.466;7.950;2022-09-02T04:22:08;8.60;;;6.23;;
1136;SDS011;557;48.466;7.950;2022-09-02T04:24:54;7.40;;;6.10;;
1136;SDS011;557;48.466;7.950;2022-09-02T04:27:41;5.40;;;4.90;;
1136;SDS011;557;48.466;7.950;2022-09-02T04:30:27;8.03;;;6.43;;
1136;SDS011;557;48.466;7.950;2022-09-02T04:33:13;7.20;;;6.50;;
1136;SDS011;557;48.466;7.950;2022-09-02T04:35:58;7.07;;;6.37;;
1136;SDS011;557;48.466;7.950;2022-09-02T04:38:44;7.20;;;6.50;;
1136;SDS011;557;48.466;7.950;2022-09-02T04:41:30;7.20;;;6.50;;
1136;SDS011;557;48.466;7.950;2022-09-02T04:44:19;7.40;;;6.60;;
1136;SDS011;557;48.466;7.950;2022-09-02T04:47:05;6.70;;;6.10;;
1136;SDS011;557;48.466;7.950;2022-09-02T04:49:52;7.40;;;6.27;;
1136;SDS011;557;48.466;7.950;2022-09-02T04:52:38;6.50;;;5.80;;
1136;SDS011;557;48.466;7.950;2022-09-02T04:55:24;7.60;;;5.90;;
1136;SDS011;557;48.466;7.950;2022-09-02T04:58:09;6.17;;;5.57;;
1136;SDS011;557;48.466;7.950;2022-09-02T05:00:56;7.67;;;6.53;;
1136;SDS011;557;48.466;7.950;2022-09-02T05:03:43;7.67;;;6.80;;
1136;SDS011;557;48.466;7.950;2022-09-02T05:06:29;6.50;;;5.90;;
1136;SDS011;557;48.466;7.950;2022-09-02T05:09:15;7.10;;;6.40;;
1136;SDS011;557;48.466;7.950;2022-09-02T05:12:02;7.50;;;6.73;;
1136;SDS011;557;48.466;7.950;2022-09-02T05:14:48;5.73;;;5.23;;
1136;SDS011;557;48.466;7.950;2022-09-02T05:17:35;6.60;;;5.90;;
1136;SDS011;557;48.466;7.950;2022-09-02T05:20:21;6.60;;;6.00;;
1136;SDS011;557;48.466;7.950;2022-09-02T05:23:07;8.60;;;7.50;;
1136;SDS011;557;48.466;7.950;2022-09-02T05:25:53;7.07;;;5.90;;
1136;SDS011;557;48.466;7.950;2022-09-02T05:28:39;8.13;;;7.20;;
1136;SDS011;557;48.466;7.950;2022-09-02T05:31:26;7.63;;;6.93;;
1136;SDS011;557;48.466;7.950;2022-09-02T05:34:14;7.77;;;6.97;;
1136;SDS011;557;48.466;7.950;2022-09-02T05:37:00;7.50;;;6.80;;
1136;SDS011;557;48.466;7.950;2022-09-02T05:39:46;8.53;;;7.70;;
1136;SDS011;557;48.466;7.950;2022-09-02T05:42:32;8.10;;;7.10;;
1136;SDS011;557;48.466;7.950;2022-09-02T05:45:18;8.60;;;7.70;;
1136;SDS011;557;48.466;7.950;2022-09-02T05:48:06;9.40;;;7.30;;
1136;SDS011;557;48.466;7.950;2022-09-02T05:51:07;10.07;;;8.00;;
1136;SDS011;557;48.466;7.950;2022-09-02T05:53:52;8.43;;;7.30;;
1136;SDS011;557;48.466;7.950;2022-09-02T05:56:40;7.17;;;6.47;;
1136;SDS011;557;48.466;7.950;2022-09-02T05:59:27;7.83;;;6.83;;
1136;SDS011;557;48.466;7.950;2022-09-02T06:02:15;8.67;;;7.30;;
1136;SDS011;557;48.466;7.950;2022-09-02T06:05:02;8.80;;;7.90;;
1136;SDS011;557;48.466;7.950;2022-09-02T06:07:49;10.00;;;7.63;;
1136;SDS011;557;48.466;7.950;2022-09-02T06:10:39;9.30;;;8.40;;
1136;SDS011;557;48.466;7.950;2022-09-02T06:13:26;8.60;;;7.70;;
1136;SDS011;557;48.466;7.950;2022-09-02T06:16:13;10.60;;;9.57;;
1136;SDS011;557;48.466;7.950;2022-09-02T06:19:00;9.17;;;8.23;;
1136;SDS011;557;48.466;7.950;2022-09-02T06:21:46;9.17;;;8.17;;
1136;SDS011;557;48.466;7.950;2022-09-02T06:24:34;8.33;;;7.53;;
1136;SDS011;557;48.466;7.950;2022-09-02T06:27:20;11.40;;;9.70;;
1136;SDS011;557;48.466;7.950;2022-09-02T06:30:06;9.87;;;8.87;;
1136;SDS011;557;48.466;7.950;2022-09-02T06:32:53;9.40;;;8.40;;
1136;SDS011;557;48.466;7.950;2022-09-02T06:35:39;9.90;;;8.77;;
1136;SDS011;557;48.466;7.950;2022-09-02T06:38:27;11.40;;;9.07;;
1136;SDS011;557;48.466;7.950;2022-09-02T06:41:15;10.00;;;9.00;;
1136;SDS011;557;48.466;7.950;2022-09-02T06:44:03;9.67;;;8.67;;
1136;SDS011;557;48.466;7.950;2022-09-02T06:46:52;9.37;;;8.47;;
1136;SDS011;557;48.466;7.950;2022-09-02T06:49:39;10.03;;;8.90;;
1136;SDS011;557;48.466;7.950;2022-09-02T06:52:24;9.90;;;8.90;;
1136;SDS011;557;48.466;7.950;2022-09-02T06:55:11;10.50;;;9.40;;
1136;SDS011;557;48.466;7.950;2022-09-02T06:58:00;10.70;;;9.60;;
1136;SDS011;557;48.466;7.950;2022-09-02T07:00:46;10.07;;;8.80;;
1136;SDS011;557;48.466;7.950;2022-09-02T07:03:31;9.20;;;8.30;;
1136;SDS011;557;48.466;7.950;2022-09-02T07:06:35;9.03;;;7.57;;
1136;SDS011;557;48.466;7.950;2022-09-02T07:09:23;9.03;;;7.90;;
1136;SDS011;557;48.466;7.950;2022-09-02T07:12:13;8.20;;;7.50;;
1136;SDS011;557;48.466;7.950;2022-09-02T07:15:02;8.47;;;7.63;;
1136;SDS011;557;48.466;7.950;2022-09-02T07:17:48;8.60;;;7.70;;
1136;SDS011;557;48.466;7.950;2022-09-02T07:20:43;8.70;;;7.60;;
1136;SDS011;557;48.466;7.950;2022-09-02T07:23:29;8.13;;;7.40;;
1136;SDS011;557;48.466;7.950;2022-09-02T07:26:15;8.63;;;7.93;;
1136;SDS011;557;48.466;7.950;2022-09-02T07:29:01;9.63;;;8.73;;
1136;SDS011;557;48.466;7.950;2022-09-02T07:31:49;9.50;;;8.70;;
1136;SDS011;557;48.466;7.950;2022-09-02T07:34:35;8.60;;;7.90;;
1136;SDS011;557;48.466;7.950;2022-09-02T07:37:20;9.03;;;8.13;;
1136;SDS011;557;48.466;7.950;2022-09-02T07:40:07;8.47;;;7.47;;
1136;SDS011;557;48.466;7.950;2022-09-02T07:42:54;9.27;;;8.47;;
1136;SDS011;557;48.466;7.950;2022-09-02T07:45:40;8.57;;;7.87;;
1136;SDS011;557;48.466;7.950;2022-09-02T07:48:29;8.90;;;8.20;;
1136;SDS011;557;48.466;7.950;2022-09-02T07:51:15;8.87;;;8.17;;
1136;SDS011;557;48.466;7.950;2022-09-02T07:54:06;8.70;;;8.20;;
1136;SDS011;557;48.466;7.950;2022-09-02T07:56:54;9.40;;;8.80;;
1136;SDS011;557;48.466;7.950;2022-09-02T07:59:40;10.10;;;9.50;;
1136;SDS011;557;48.466;7.950;2022-09-02T08:02:26;9.87;;;9.27;;
1136;SDS011;557;48.466;7.950;2022-09-02T08:05:12;9.30;;;8.70;;
1136;SDS011;557;48.466;7.950;2022-09-02T08:07:58;9.73;;;9.23;;
1136;SDS011;557;48.466;7.950;2022-09-02T08:10:45;9.00;;;8.50;;
1136;SDS011;557;48.466;7.950;2022-09-02T08:13:31;10.17;;;9.67;;
1136;SDS011;557;48.466;7.950;2022-09-02T08:16:18;10.00;;;9.40;;
1136;SDS011;557;48.466;7.950;2022-09-02T08:19:09;10.73;;;10.10;;
1136;SDS011;557;48.466;7.950;2022-09-02T08:22:02;10.20;;;9.60;;
1136;SDS011;557;48.466;7.950;2022-09-02T08:24:49;10.83;;;10.23;;
1136;SDS011;557;48.466;7.950;2022-09-02T08:27:35;10.03;;;9.53;;
1136;SDS011;557;48.466;7.950;2022-09-02T08:30:21;10.67;;;10.07;;
1136;SDS011;557;48.466;7.950;2022-09-02T08:33:07;10.97;;;10.37;;
1136;SDS011;557;48.466;7.950;2022-09-02T08:35:53;10.50;;;10.00;;
1136;SDS011;557;48.466;7.950;2022-09-02T08:38:40;10.83;;;10.23;;
1136;SDS011;557;48.466;7.950;2022-09-02T08:41:27;10.20;;;9.70;;
1136;SDS011;557;48.466;7.950;2022-09-02T08:44:19;11.10;;;10.50;;
1136;SDS011;557;48.466;7.950;2022-09-02T08:47:12;10.90;;;10.20;;
1136;SDS011;557;48.466;7.950;2022-09-02T08:50:04;10.93;;;10.37;;
1136;SDS011;557;48.466;7.950;2022-09-02T08:52:57;11.20;;;10.60;;
1136;SDS011;557;48.466;7.950;2022-09-02T08:55:50;11.13;;;10.43;;
1136;SDS011;557;48.466;7.950;2022-09-02T08:58:39;11.30;;;10.70;;
1136;SDS011;557;48.466;7.950;2022-09-02T09:01:28;11.37;;;10.67;;
1136;SDS011;557;48.466;7.950;2022-09-02T09:04:25;11.10;;;10.50;;
1136;SDS011;557;48.466;7.950;2022-09-02T09:07:24;11.20;;;10.50;;
1136;SDS011;557;48.466;7.950;2022-09-02T09:10:18;11.13;;;10.60;;
1136;SDS011;557;48.466;7.950;2022-09-02T09:13:23;12.00;;;11.10;;
1136;SDS011;557;48.466;7.950;2022-09-02T09:16:23;11.63;;;10.85;;
1136;SDS011;557;48.466;7.950;2022-09-02T09:19:15;11.60;;;11.00;;
1136;SDS011;557;48.466;7.950;2022-09-02T09:22:06;11.53;;;10.93;;
1136;SDS011;557;48.466;7.950;2022-09-02T09:24:56;12.87;;;11.97;;
1136;SDS011;557;48.466;7.950;2022-09-02T09:27:42;12.17;;;11.57;;
1136;SDS011;557;48.466;7.950;2022-09-02T09:30:30;13.27;;;12.67;;
1136;SDS011;557;48.466;7.950;2022-09-02T09:33:16;13.27;;;12.57;;
1136;SDS011;557;48.466;7.950;2022-09-02T09:36:06;12.40;;;11.73;;
1136;SDS011;557;48.466;7.950;2022-09-02T09:38:52;12.23;;;11.43;;
1136;SDS011;557;48.466;7.950;2022-09-02T09:41:38;12.17;;;11.57;;
1136;SDS011;557;48.466;7.950;2022-09-02T09:44:34;12.13;;;11.52;;
1136;SDS011;557;48.466;7.950;2022-09-02T09:47:24;12.13;;;11.52;;
1136;SDS011;557;48.466;7.950;2022-09-02T09:50:11;13.13;;;12.53;;
1136;SDS011;557;48.466;7.950;2022-09-02T09:53:12;12.75;;;11.95;;
1136;SDS011;557;48.466;7.950;2022-09-02T09:56:00;12.82;;;12.23;;
1136;SDS011;557;48.466;7.950;2022-09-02T09:58:48;12.05;;;11.45;;
1136;SDS011;557;48.466;7.950;2022-09-02T10:01:34;13.38;;;12.68;;
1136;SDS011;557;48.466;7.950;2022-09-02T10:04:26;12.88;;;12.27;;
1136;SDS011;557;48.466;7.950;2022-09-02T10:07:13;13.40;;;12.77;;
1136;SDS011;557;48.466;7.950;2022-09-02T10:10:20;14.10;;;13.30;;
1136;SDS011;557;48.466;7.950;2022-09-02T10:13:16;14.25;;;13.40;;
1136;SDS011;557;48.466;7.950;2022-09-02T10:16:08;13.93;;;13.27;;
1136;SDS011;557;48.466;7.950;2022-09-02T10:19:06;13.85;;;13.05;;
1136;SDS011;557;48.466;7.950;2022-09-02T10:22:02;14.55;;;13.85;;
1136;SDS011;557;48.466;7.950;2022-09-02T10:25:11;13.45;;;12.75;;
1136;SDS011;557;48.466;7.950;2022-09-02T10:28:08;14.20;;;13.50;;
1136;SDS011;557;48.466;7.950;2022-09-02T10:31:08;14.23;;;13.40;;
1136;SDS011;557;48.466;7.950;2022-09-02T10:34:01;14.13;;;13.43;;
1136;SDS011;557;48.466;7.950;2022-09-02T10:37:04;14.07;;;13.27;;
1136;SDS011;557;48.466;7.950;2022-09-02T10:40:01;14.00;;;13.30;;
1136;SDS011;557;48.466;7.950;2022-09-02T10:42:56;13.57;;;12.88;;
1136;SDS011;557;48.466;7.950;2022-09-02T10:45:45;14.20;;;13.40;;
1136;SDS011;557;48.466;7.950;2022-09-02T10:48:36;14.25;;;13.55;;
1136;SDS011;557;48.466;7.950;2022-09-02T10:51:35;14.48;;;13.85;;
1136;SDS011;557;48.466;7.950;2022-09-02T10:54:32;14.23;;;13.55;;
1136;SDS011;557;48.466;7.950;2022-09-02T10:57:27;13.98;;;13.38;;
1136;SDS011;557;48.466;7.950;2022-09-02T11:00:15;14.30;;;13.60;;
1136;SDS011;557;48.466;7.950;2022-09-02T11:03:05;14.45;;;13.65;;
1136;SDS011;557;48.466;7.950;2022-09-02T11:05:57;14.35;;;13.65;;
1136;SDS011;557;48.466;7.950;2022-09-02T11:08:51;14.18;;;13.50;;
1136;SDS011;557;48.466;7.950;2022-09-02T11:11:43;14.50;;;13.80;;
1136;SDS011;557;48.466;7.950;2022-09-02T11:14:34;14.45;;;13.75;;
1136;SDS011;557;48.466;7.950;2022-09-02T11:17:27;14.55;;;13.85;;
1136;SDS011;557;48.466;7.950;2022-09-02T11:20:22;14.73;;;14.00;;
1136;SDS011;557;48.466;7.950;2022-09-02T11:23:15;14.38;;;13.68;;
1136;SDS011;557;48.466;7.950;2022-09-02T11:26:08;14.77;;;14.07;;
1136;SDS011;557;48.466;7.950;2022-09-02T11:29:02;14.60;;;13.90;;
1136;SDS011;557;48.466;7.950;2022-09-02T11:31:55;14.50;;;13.80;;
1136;SDS011;557;48.466;7.950;2022-09-02T11:34:46;15.05;;;14.27;;
1136;SDS011;557;48.466;7.950;2022-09-02T11:37:36;15.15;;;14.45;;
1136;SDS011;557;48.466;7.950;2022-09-02T11:40:28;15.50;;;14.70;;
1136;SDS011;557;48.466;7.950;2022-09-02T11:43:21;15.43;;;14.52;;
1136;SDS011;557;48.466;7.950;2022-09-02T11:49:51;15.23;;;14.43;;
1136;SDS011;557;48.466;7.950;2022-09-02T11:52:53;15.68;;;14.80;;
1136;SDS011;557;48.466;7.950;2022-09-02T11:55:47;15.23;;;14.52;;
1136;SDS011;557;48.466;7.950;2022-09-02T11:58:37;15.35;;;14.55;;
1136;SDS011;557;48.466;7.950;2022-09-02T12:01:25;15.60;;;14.80;;
1136;SDS011;557;48.466;7.950;2022-09-02T12:04:19;15.95;;;15.15;;
1136;SDS011;557;48.466;7.950;2022-09-02T12:13:42;16.30;;;15.35;;
1136;SDS011;557;48.466;7.950;2022-09-02T12:19:47;15.13;;;14.32;;
1136;SDS011;557;48.466;7.950;2022-09-02T12:22:34;15.55;;;14.70;;
1136;SDS011;557;48.466;7.950;2022-09-02T12:25:32;15.00;;;14.20;;
1136;SDS011;557;48.466;7.950;2022-09-02T12:28:24;15.40;;;14.60;;
1136;SDS011;557;48.466;7.950;2022-09-02T12:31:15;15.23;;;14.43;;
1136;SDS011;557;48.466;7.950;2022-09-02T12:37:50;14.82;;;14.13;;
1136;SDS011;557;48.466;7.950;2022-09-02T12:40:38;15.68;;;14.88;;
1136;SDS011;557;48.466;7.950;2022-09-02T12:43:35;15.27;;;14.57;;
1136;SDS011;557;48.466;7.950;2022-09-02T12:46:42;15.88;;;15.00;;
1136;SDS011;557;48.466;7.950;2022-09-02T12:49:44;14.98;;;14.18;;
1136;SDS011;557;48.466;7.950;2022-09-02T12:52:42;15.40;;;14.70;;
1136;SDS011;557;48.466;7.950;2022-09-02T12:55:30;15.68;;;14.90;;
1136;SDS011;557;48.466;7.950;2022-09-02T12:58:18;15.35;;;14.65;;
1136;SDS011;557;48.466;7.950;2022-09-02T13:01:11;15.32;;;14.57;;
1136;SDS011;557;48.466;7.950;2022-09-02T13:10:55;16.05;;;15.25;;
1136;SDS011;557;48.466;7.950;2022-09-02T13:17:30;15.95;;;15.15;;
1136;SDS011;557;48.466;7.950;2022-09-02T13:20:36;15.90;;;15.10;;
1136;SDS011;557;48.466;7.950;2022-09-02T13:23:41;15.73;;;15.00;;
1136;SDS011;557;48.466;7.950;2022-09-02T13:30:24;15.65;;;14.95;;
1136;SDS011;557;48.466;7.950;2022-09-02T13:33:25;15.60;;;14.90;;
1136;SDS011;557;48.466;7.950;2022-09-02T13:36:11;16.42;;;15.63;;
1136;SDS011;557;48.466;7.950;2022-09-02T13:39:09;16.40;;;15.60;;
1136;SDS011;557;48.466;7.950;2022-09-02T13:41:58;16.20;;;15.40;;
1136;SDS011;557;48.466;7.950;2022-09-02T13:45:07;16.63;;;15.82;;
1136;SDS011;557;48.466;7.950;2022-09-02T13:47:55;16.23;;;15.43;;
1136;SDS011;557;48.466;7.950;2022-09-02T13:53:38;16.70;;;15.80;;
1136;SDS011;557;48.466;7.950;2022-09-02T13:56:26;16.80;;;15.90;;
1136;SDS011;557;48.466;7.950;2022-09-02T13:59:14;16.80;;;16.00;;
1136;SDS011;557;48.466;7.950;2022-09-02T14:02:16;16.20;;;15.50;;
1136;SDS011;557;48.466;7.950;2022-09-02T14:05:06;17.05;;;16.15;;
1136;SDS011;557;48.466;7.950;2022-09-02T14:07:58;17.10;;;16.20;;
1136;SDS011;557;48.466;7.950;2022-09-02T14:10:47;17.17;;;16.38;;
1136;SDS011;557;48.466;7.950;2022-09-02T14:13:35;17.40;;;16.60;;
1136;SDS011;557;48.466;7.950;2022-09-02T14:16:31;17.13;;;16.33;;
1136;SDS011;557;48.466;7.950;2022-09-02T14:19:27;17.25;;;16.45;;
1136;SDS011;557;48.466;7.950;2022-09-02T14:22:22;17.65;;;16.85;;
1136;SDS011;557;48.466;7.950;2022-09-02T14:25:11;17.45;;;16.65;;
1136;SDS011;557;48.466;7.950;2022-09-02T14:27:58;17.50;;;16.63;;
1136;SDS011;557;48.466;7.950;2022-09-02T14:30:53;17.60;;;16.80;;
1136;SDS011;557;48.466;7.950;2022-09-02T14:33:41;17.60;;;16.77;;
1136;SDS011;557;48.466;7.950;2022-09-02T14:36:32;17.60;;;16.77;;
1136;SDS011;557;48.466;7.950;2022-09-02T14:39:20;17.48;;;16.67;;
1136;SDS011;557;48.466;7.950;2022-09-02T14:42:06;17.80;;;16.90;;
1136;SDS011;557;48.466;7.950;2022-09-02T14:44:52;17.73;;;16.90;;
1136;SDS011;557;48.466;7.950;2022-09-02T14:47:38;17.45;;;16.65;;
1136;SDS011;557;48.466;7.950;2022-09-02T14:50:26;17.27;;;16.48;;
1136;SDS011;557;48.466;7.950;2022-09-02T14:53:18;17.10;;;16.30;;
1136;SDS011;557;48.466;7.950;2022-09-02T14:56:07;17.13;;;16.33;;
1136;SDS011;557;48.466;7.950;2022-09-02T14:58:53;17.02;;;16.23;;
1136;SDS011;557;48.466;7.950;2022-09-02T15:01:38;16.95;;;16.15;;
1136;SDS011;557;48.466;7.950;2022-09-02T15:04:24;16.80;;;16.00;;
1136;SDS011;557;48.466;7.950;2022-09-02T15:07:10;17.33;;;16.48;;
1136;SDS011;557;48.466;7.950;2022-09-02T15:09:56;16.83;;;16.02;;
1136;SDS011;557;48.466;7.950;2022-09-02T15:12:45;16.83;;;15.93;;
1136;SDS011;557;48.466;7.950;2022-09-02T15:15:33;16.40;;;15.50;;
1136;SDS011;557;48.466;7.950;2022-09-02T15:18:18;17.00;;;16.10;;
1136;SDS011;557;48.466;7.950;2022-09-02T15:21:12;16.55;;;15.73;;
1136;SDS011;557;48.466;7.950;2022-09-02T15:23:58;16.13;;;15.32;;
1136;SDS011;557;48.466;7.950;2022-09-02T15:26:43;16.30;;;15.50;;
1136;SDS011;557;48.466;7.950;2022-09-02T15:29:30;16.25;;;15.45;;
1136;SDS011;557;48.466;7.950;2022-09-02T15:32:16;16.52;;;15.30;;
1136;SDS011;557;48.466;7.950;2022-09-02T15:35:02;16.40;;;15.55;;
1136;SDS011;557;48.466;7.950;2022-09-02T15:37:49;16.17;;;15.38;;
1136;SDS011;557;48.466;7.950;2022-09-02T15:40:35;16.23;;;15.43;;
1136;SDS011;557;48.466;7.950;2022-09-02T15:43:21;16.67;;;15.77;;
1136;SDS011;557;48.466;7.950;2022-09-02T15:46:14;16.20;;;15.40;;
1136;SDS011;557;48.466;7.950;2022-09-02T15:49:03;16.05;;;15.25;;
1136;SDS011;557;48.466;7.950;2022-09-02T15:51:50;16.13;;;15.32;;
1136;SDS011;557;48.466;7.950;2022-09-02T15:54:36;15.70;;;15.00;;
1136;SDS011;557;48.466;7.950;2022-09-02T15:57:22;15.63;;;14.90;;
1136;SDS011;557;48.466;7.950;2022-09-02T16:00:08;16.33;;;15.52;;
1136;SDS011;557;48.466;7.950;2022-09-02T16:02:56;16.10;;;15.30;;
1136;SDS011;557;48.466;7.950;2022-09-02T16:05:42;16.38;;;15.57;;
1136;SDS011;557;48.466;7.950;2022-09-02T16:08:27;16.88;;;15.98;;
1136;SDS011;557;48.466;7.950;2022-09-02T16:11:13;16.63;;;15.82;;
1136;SDS011;557;48.466;7.950;2022-09-02T16:13:59;16.25;;;15.35;;
1136;SDS011;557;48.466;7.950;2022-09-02T16:16:45;16.20;;;15.30;;
1136;SDS011;557;48.466;7.950;2022-09-02T16:19:33;16.48;;;15.57;;
1136;SDS011;557;48.466;7.950;2022-09-02T16:22:19;16.40;;;15.60;;
1136;SDS011;557;48.466;7.950;2022-09-02T16:25:05;16.35;;;15.45;;
1136;SDS011;557;48.466;7.950;2022-09-02T16:27:51;16.70;;;15.80;;
1136;SDS011;557;48.466;7.950;2022-09-02T16:30:38;16.35;;;15.55;;
1136;SDS011;557;48.466;7.950;2022-09-02T16:33:24;16.58;;;15.77;;
1136;SDS011;557;48.466;7.950;2022-09-02T16:36:11;15.80;;;15.00;;
1136;SDS011;557;48.466;7.950;2022-09-02T16:38:57;16.35;;;15.43;;
1136;SDS011;557;48.466;7.950;2022-09-02T16:41:44;16.15;;;15.25;;
1136;SDS011;557;48.466;7.950;2022-09-02T16:44:30;15.88;;;14.93;;
1136;SDS011;557;48.466;7.950;2022-09-02T16:47:18;16.00;;;15.10;;
1136;SDS011;557;48.466;7.950;2022-09-02T16:50:04;15.68;;;14.88;;
1136;SDS011;557;48.466;7.950;2022-09-02T16:52:51;17.27;;;16.15;;
1136;SDS011;557;48.466;7.950;2022-09-02T16:55:39;17.27;;;16.38;;
1136;SDS011;557;48.466;7.950;2022-09-02T16:58:25;16.45;;;15.45;;
1136;SDS011;557;48.466;7.950;2022-09-02T17:01:13;16.35;;;15.45;;
1136;SDS011;557;48.466;7.950;2022-09-02T17:04:00;16.00;;;15.20;;
1136;SDS011;557;48.466;7.950;2022-09-02T17:06:46;15.63;;;14.82;;
1136;SDS011;557;48.466;7.950;2022-09-02T17:09:33;15.57;;;14.77;;
1136;SDS011;557;48.466;7.950;2022-09-02T17:12:19;16.13;;;15.32;;
1136;SDS011;557;48.466;7.950;2022-09-02T17:15:05;15.90;;;15.10;;
1136;SDS011;557;48.466;7.950;2022-09-02T17:17:51;16.40;;;15.60;;
1136;SDS011;557;48.466;7.950;2022-09-02T17:20:37;15.65;;;14.95;;
1136;SDS011;557;48.466;7.950;2022-09-02T17:23:23;15.65;;;14.57;;
1136;SDS011;557;48.466;7.950;2022-09-02T17:26:10;15.38;;;14.57;;
1136;SDS011;557;48.466;7.950;2022-09-02T17:28:56;15.70;;;14.95;;
1136;SDS011;557;48.466;7.950;2022-09-02T17:31:42;15.85;;;14.98;;
1136;SDS011;557;48.466;7.950;2022-09-02T17:34:28;15.70;;;14.80;;
1136;SDS011;557;48.466;7.950;2022-09-02T17:37:16;15.93;;;14.87;;
1136;SDS011;557;48.466;7.950;2022-09-02T17:40:04;15.27;;;14.40;;
1136;SDS011;557;48.466;7.950;2022-09-02T17:43:13;14.53;;;13.83;;
1136;SDS011;557;48.466;7.950;2022-09-02T17:46:03;14.30;;;13.47;;
1136;SDS011;557;48.466;7.950;2022-09-02T17:48:49;13.83;;;13.23;;
1136;SDS011;557;48.466;7.950;2022-09-02T17:51:35;13.50;;;12.90;;
1136;SDS011;557;48.466;7.950;2022-09-02T17:54:22;12.80;;;12.20;;
1136;SDS011;557;48.466;7.950;2022-09-02T17:57:20;12.87;;;12.27;;
1136;SDS011;557;48.466;7.950;2022-09-02T18:00:16;12.80;;;12.20;;
1136;SDS011;557;48.466;7.950;2022-09-02T18:03:16;12.50;;;11.90;;
1136;SDS011;557;48.466;7.950;2022-09-02T18:06:12;12.33;;;11.77;;